sensor_id;sensor_type;location;lat;lon;timestamp;temperature;humidity
51733;DHT22;39139;53.144;6.244;2023-04-25T00:00:07;6.70;99.90
51733;DHT22;39139;53.144;6.244;2023-04-25T00:02:34;6.70;99.90
51733;DHT22;39139;53.144;6.244;2023-04-25T00:05:01;6.70;99.90
51733;DHT22;39139;53.144;6.244;2023-04-25T00:07:27;6.80;99.90
51733;DHT22;39139;53.144;6.244;2023-04-25T00:09:53;6.70;99.90
51733;DHT22;39139;53.144;6.244;2023-04-25T00:12:18;6.70;99.90
51733;DHT22;39139;53.144;6.244;2023-04-25T00:14:44;6.70;99.90
51733;DHT22;39139;53.144;6.244;2023-04-25T00:17:10;6.70;99.90
51733;DHT22;39139;53.144;6.244;2023-04-25T00:19:36;6.70;99.90
51733;DHT22;39139;53.144;6.244;2023-04-25T00:22:03;6.70;99.90
51733;DHT22;39139;53.144;6.244;2023-04-25T00:24:29;6.70;99.90
51733;DHT22;39139;53.144;6.244;2023-04-25T00:26:55;6.70;99.90
51733;DHT22;39139;53.144;6.244;2023-04-25T00:29:20;6.60;99.90
51733;DHT22;39139;53.144;6.244;2023-04-25T00:31:46;6.60;99.90
51733;DHT22;39139;53.144;6.244;2023-04-25T00:34:12;6.50;99.90
51733;DHT22;39139;53.144;6.244;2023-04-25T00:36:37;6.50;99.90
51733;DHT22;39139;53.144;6.244;2023-04-25T00:39:03;6.50;99.90
51733;DHT22;39139;53.144;6.244;2023-04-25T00:41:30;6.40;99.90
51733;DHT22;39139;53.144;6.244;2023-04-25T00:43:56;6.40;99.90
51733;DHT22;39139;53.144;6.244;2023-04-25T00:46:23;6.40;99.90
51733;DHT22;39139;53.144;6.244;2023-04-25T00:48:48;6.40;99.90
51733;DHT22;39139;53.144;6.244;2023-04-25T00:51:19;6.30;99.90
51733;DHT22;39139;53.144;6.244;2023-04-25T00:53:45;6.30;99.90
51733;DHT22;39139;53.144;6.244;2023-04-25T00:56:11;6.30;99.90
51733;DHT22;39139;53.144;6.244;2023-04-25T00:58:38;6.30;99.90
51733;DHT22;39139;53.144;6.244;2023-04-25T01:01:04;6.30;99.90
51733;DHT22;39139;53.144;6.244;2023-04-25T01:03:33;6.30;99.90
51733;DHT22;39139;53.144;6.244;2023-04-25T01:06:01;6.30;99.90
51733;DHT22;39139;53.144;6.244;2023-04-25T01:08:28;6.30;99.90
51733;DHT22;39139;53.144;6.244;2023-04-25T01:10:53;6.30;99.90
51733;DHT22;39139;53.144;6.244;2023-04-25T01:13:19;6.30;99.90
51733;DHT22;39139;53.144;6.244;2023-04-25T01:15:45;6.50;99.90
51733;DHT22;39139;53.144;6.244;2023-04-25T01:18:11;6.30;99.90
51733;DHT22;39139;53.144;6.244;2023-04-25T01:20:37;6.20;99.90
51733;DHT22;39139;53.144;6.244;2023-04-25T01:23:03;6.20;99.90
51733;DHT22;39139;53.144;6.244;2023-04-25T01:25:32;6.30;99.90
51733;DHT22;39139;53.144;6.244;2023-04-25T01:27:59;6.20;99.90
51733;DHT22;39139;53.144;6.244;2023-04-25T01:30:26;6.20;99.90
51733;DHT22;39139;53.144;6.244;2023-04-25T01:32:55;6.20;99.90
51733;DHT22;39139;53.144;6.244;2023-04-25T01:35:21;6.20;99.90
51733;DHT22;39139;53.144;6.244;2023-04-25T01:37:50;6.20;99.90
51733;DHT22;39139;53.144;6.244;2023-04-25T01:40:17;6.20;99.90
51733;DHT22;39139;53.144;6.244;2023-04-25T01:42:44;6.20;99.90
51733;DHT22;39139;53.144;6.244;2023-04-25T01:45:10;6.20;99.90
51733;DHT22;39139;53.144;6.244;2023-04-25T01:47:37;6.10;99.90
51733;DHT22;39139;53.144;6.244;2023-04-25T01:50:04;6.30;99.90
51733;DHT22;39139;53.144;6.244;2023-04-25T01:52:30;6.00;99.90
51733;DHT22;39139;53.144;6.244;2023-04-25T01:54:57;6.00;99.90
51733;DHT22;39139;53.144;6.244;2023-04-25T01:57:23;6.00;99.90
51733;DHT22;39139;53.144;6.244;2023-04-25T01:59:49;5.90;99.90
51733;DHT22;39139;53.144;6.244;2023-04-25T02:02:15;6.00;99.90
51733;DHT22;39139;53.144;6.244;2023-04-25T02:04:41;6.00;99.90
51733;DHT22;39139;53.144;6.244;2023-04-25T02:07:06;6.00;99.90
51733;DHT22;39139;53.144;6.244;2023-04-25T02:09:32;6.00;99.90
51733;DHT22;39139;53.144;6.244;2023-04-25T02:11:58;6.00;99.90
51733;DHT22;39139;53.144;6.244;2023-04-25T02:14:23;6.00;99.90
51733;DHT22;39139;53.144;6.244;2023-04-25T02:16:49;6.00;99.90
51733;DHT22;39139;53.144;6.244;2023-04-25T02:19:16;5.90;99.90
51733;DHT22;39139;53.144;6.244;2023-04-25T02:21:42;6.00;99.90
51733;DHT22;39139;53.144;6.244;2023-04-25T02:24:08;5.10;99.90
51733;DHT22;39139;53.144;6.244;2023-04-25T02:26:34;6.10;99.90
51733;DHT22;39139;53.144;6.244;2023-04-25T02:28:59;6.00;99.90
51733;DHT22;39139;53.144;6.244;2023-04-25T02:31:26;6.10;99.90
51733;DHT22;39139;53.144;6.244;2023-04-25T02:33:52;6.10;99.90
51733;DHT22;39139;53.144;6.244;2023-04-25T02:36:17;6.10;99.90
51733;DHT22;39139;53.144;6.244;2023-04-25T02:38:43;6.10;99.90
51733;DHT22;39139;53.144;6.244;2023-04-25T02:41:08;6.10;99.90
51733;DHT22;39139;53.144;6.244;2023-04-25T02:43:34;6.00;99.90
51733;DHT22;39139;53.144;6.244;2023-04-25T02:46:00;6.00;99.90
51733;DHT22;39139;53.144;6.244;2023-04-25T02:48:28;5.90;99.90
51733;DHT22;39139;53.144;6.244;2023-04-25T02:50:54;5.80;99.90
51733;DHT22;39139;53.144;6.244;2023-04-25T02:53:20;5.90;99.90
51733;DHT22;39139;53.144;6.244;2023-04-25T02:55:46;5.70;99.90
51733;DHT22;39139;53.144;6.244;2023-04-25T02:58:11;5.60;99.90
51733;DHT22;39139;53.144;6.244;2023-04-25T03:00:37;5.60;99.90
51733;DHT22;39139;53.144;6.244;2023-04-25T03:03:03;5.50;99.90
51733;DHT22;39139;53.144;6.244;2023-04-25T03:05:29;5.50;99.90
51733;DHT22;39139;53.144;6.244;2023-04-25T03:07:54;5.50;99.90
51733;DHT22;39139;53.144;6.244;2023-04-25T03:10:20;5.40;99.90
51733;DHT22;39139;53.144;6.244;2023-04-25T03:12:48;5.50;99.90
51733;DHT22;39139;53.144;6.244;2023-04-25T03:15:14;5.40;99.90
51733;DHT22;39139;53.144;6.244;2023-04-25T03:17:42;5.40;99.90
51733;DHT22;39139;53.144;6.244;2023-04-25T03:20:08;5.40;99.90
51733;DHT22;39139;53.144;6.244;2023-04-25T03:22:34;5.40;99.90
51733;DHT22;39139;53.144;6.244;2023-04-25T03:24:59;5.30;99.90
51733;DHT22;39139;53.144;6.244;2023-04-25T03:27:25;5.30;99.90
51733;DHT22;39139;53.144;6.244;2023-04-25T03:29:51;5.30;99.90
51733;DHT22;39139;53.144;6.244;2023-04-25T03:32:16;5.30;99.90
51733;DHT22;39139;53.144;6.244;2023-04-25T03:34:42;5.30;99.90
51733;DHT22;39139;53.144;6.244;2023-04-25T03:37:08;5.30;99.90
51733;DHT22;39139;53.144;6.244;2023-04-25T03:39:33;5.20;99.90
51733;DHT22;39139;53.144;6.244;2023-04-25T03:41:59;5.20;99.90
51733;DHT22;39139;53.144;6.244;2023-04-25T03:44:25;5.20;99.90
51733;DHT22;39139;53.144;6.244;2023-04-25T03:46:50;5.20;99.90
51733;DHT22;39139;53.144;6.244;2023-04-25T03:49:16;5.20;99.90
51733;DHT22;39139;53.144;6.244;2023-04-25T03:51:42;5.20;99.90
51733;DHT22;39139;53.144;6.244;2023-04-25T03:54:07;5.20;99.90
51733;DHT22;39139;53.144;6.244;2023-04-25T03:56:33;5.20;99.90
51733;DHT22;39139;53.144;6.244;2023-04-25T03:58:59;5.20;99.90
51733;DHT22;39139;53.144;6.244;2023-04-25T04:01:24;5.20;99.90
51733;DHT22;39139;53.144;6.244;2023-04-25T04:03:50;5.20;99.90
51733;DHT22;39139;53.144;6.244;2023-04-25T04:06:16;5.20;99.90
51733;DHT22;39139;53.144;6.244;2023-04-25T04:08:42;5.20;99.90
51733;DHT22;39139;53.144;6.244;2023-04-25T04:11:08;5.20;99.90
51733;DHT22;39139;53.144;6.244;2023-04-25T04:13:33;5.10;99.90
51733;DHT22;39139;53.144;6.244;2023-04-25T04:15:59;5.10;99.90
51733;DHT22;39139;53.144;6.244;2023-04-25T04:18:24;5.00;99.90
51733;DHT22;39139;53.144;6.244;2023-04-25T04:20:50;4.90;99.90
51733;DHT22;39139;53.144;6.244;2023-04-25T04:23:16;4.90;99.90
51733;DHT22;39139;53.144;6.244;2023-04-25T04:25:41;4.80;99.90
51733;DHT22;39139;53.144;6.244;2023-04-25T04:28:07;4.80;99.90
51733;DHT22;39139;53.144;6.244;2023-04-25T04:30:33;4.60;99.90
51733;DHT22;39139;53.144;6.244;2023-04-25T04:33:01;4.50;99.90
51733;DHT22;39139;53.144;6.244;2023-04-25T04:35:27;4.40;99.90
51733;DHT22;39139;53.144;6.244;2023-04-25T04:37:53;4.30;99.90
51733;DHT22;39139;53.144;6.244;2023-04-25T04:40:19;4.20;99.90
51733;DHT22;39139;53.144;6.244;2023-04-25T04:42:45;4.20;99.90
51733;DHT22;39139;53.144;6.244;2023-04-25T04:45:11;4.10;99.90
51733;DHT22;39139;53.144;6.244;2023-04-25T04:47:38;4.00;99.90
51733;DHT22;39139;53.144;6.244;2023-04-25T04:50:06;4.00;99.90
51733;DHT22;39139;53.144;6.244;2023-04-25T04:52:34;4.10;99.90
51733;DHT22;39139;53.144;6.244;2023-04-25T04:55:00;4.10;99.90
51733;DHT22;39139;53.144;6.244;2023-04-25T04:57:28;4.10;99.90
51733;DHT22;39139;53.144;6.244;2023-04-25T04:59:54;4.20;99.90
51733;DHT22;39139;53.144;6.244;2023-04-25T05:02:19;4.30;99.90
51733;DHT22;39139;53.144;6.244;2023-04-25T05:04:45;4.40;99.90
51733;DHT22;39139;53.144;6.244;2023-04-25T05:07:11;4.50;99.90
51733;DHT22;39139;53.144;6.244;2023-04-25T05:09:37;4.40;99.90
51733;DHT22;39139;53.144;6.244;2023-04-25T05:12:02;4.60;99.90
51733;DHT22;39139;53.144;6.244;2023-04-25T05:14:28;4.70;99.90
51733;DHT22;39139;53.144;6.244;2023-04-25T05:16:54;4.70;99.90
51733;DHT22;39139;53.144;6.244;2023-04-25T05:19:20;5.00;99.90
51733;DHT22;39139;53.144;6.244;2023-04-25T05:21:46;4.90;99.90
51733;DHT22;39139;53.144;6.244;2023-04-25T05:24:11;5.00;99.90
51733;DHT22;39139;53.144;6.244;2023-04-25T05:26:37;5.10;99.90
51733;DHT22;39139;53.144;6.244;2023-04-25T05:29:03;5.20;99.90
51733;DHT22;39139;53.144;6.244;2023-04-25T05:31:29;5.30;99.90
51733;DHT22;39139;53.144;6.244;2023-04-25T05:33:54;5.50;99.90
51733;DHT22;39139;53.144;6.244;2023-04-25T05:36:20;5.70;99.90
51733;DHT22;39139;53.144;6.244;2023-04-25T05:38:46;5.70;99.90
51733;DHT22;39139;53.144;6.244;2023-04-25T05:41:12;5.80;99.90
51733;DHT22;39139;53.144;6.244;2023-04-25T05:43:37;5.90;99.90
51733;DHT22;39139;53.144;6.244;2023-04-25T05:46:03;6.00;99.90
51733;DHT22;39139;53.144;6.244;2023-04-25T05:48:29;6.00;99.90
51733;DHT22;39139;53.144;6.244;2023-04-25T05:50:55;6.10;99.90
51733;DHT22;39139;53.144;6.244;2023-04-25T05:53:21;6.30;99.90
51733;DHT22;39139;53.144;6.244;2023-04-25T05:55:47;6.20;99.90
51733;DHT22;39139;53.144;6.244;2023-04-25T05:58:13;6.30;99.90
51733;DHT22;39139;53.144;6.244;2023-04-25T06:00:38;6.50;99.90
51733;DHT22;39139;53.144;6.244;2023-04-25T06:03:06;6.50;99.90
51733;DHT22;39139;53.144;6.244;2023-04-25T06:05:35;6.50;99.90
51733;DHT22;39139;53.144;6.244;2023-04-25T06:08:01;6.50;99.90
51733;DHT22;39139;53.144;6.244;2023-04-25T06:10:26;6.30;99.90
51733;DHT22;39139;53.144;6.244;2023-04-25T06:12:52;6.40;99.90
51733;DHT22;39139;53.144;6.244;2023-04-25T06:15:19;7.90;99.90
51733;DHT22;39139;53.144;6.244;2023-04-25T06:17:44;5.80;99.90
51733;DHT22;39139;53.144;6.244;2023-04-25T06:20:10;6.40;99.90
51733;DHT22;39139;53.144;6.244;2023-04-25T06:22:36;6.40;99.90
51733;DHT22;39139;53.144;6.244;2023-04-25T06:25:02;6.50;99.90
51733;DHT22;39139;53.144;6.244;2023-04-25T06:27:29;6.50;99.90
51733;DHT22;39139;53.144;6.244;2023-04-25T06:29:55;6.60;99.90
51733;DHT22;39139;53.144;6.244;2023-04-25T06:32:21;6.60;99.90
51733;DHT22;39139;53.144;6.244;2023-04-25T06:34:46;6.60;99.90
51733;DHT22;39139;53.144;6.244;2023-04-25T06:37:12;6.70;99.90
51733;DHT22;39139;53.144;6.244;2023-04-25T06:39:37;6.90;99.90
51733;DHT22;39139;53.144;6.244;2023-04-25T06:42:03;7.10;99.90
51733;DHT22;39139;53.144;6.244;2023-04-25T06:44:29;7.40;99.90
51733;DHT22;39139;53.144;6.244;2023-04-25T06:46:55;7.20;99.90
51733;DHT22;39139;53.144;6.244;2023-04-25T06:49:21;7.10;99.90
51733;DHT22;39139;53.144;6.244;2023-04-25T06:51:46;6.90;99.90
51733;DHT22;39139;53.144;6.244;2023-04-25T06:54:12;7.20;99.90
51733;DHT22;39139;53.144;6.244;2023-04-25T06:56:37;7.00;99.90
51733;DHT22;39139;53.144;6.244;2023-04-25T06:59:03;7.10;99.90
51733;DHT22;39139;53.144;6.244;2023-04-25T07:01:29;7.20;99.90
51733;DHT22;39139;53.144;6.244;2023-04-25T07:03:55;7.40;99.90
51733;DHT22;39139;53.144;6.244;2023-04-25T07:06:20;7.60;99.90
51733;DHT22;39139;53.144;6.244;2023-04-25T07:08:46;7.80;99.90
51733;DHT22;39139;53.144;6.244;2023-04-25T07:11:12;8.00;99.90
51733;DHT22;39139;53.144;6.244;2023-04-25T07:13:37;8.00;99.90
51733;DHT22;39139;53.144;6.244;2023-04-25T07:16:03;8.30;99.90
51733;DHT22;39139;53.144;6.244;2023-04-25T07:18:29;8.40;99.90
51733;DHT22;39139;53.144;6.244;2023-04-25T07:20:55;8.10;99.90
51733;DHT22;39139;53.144;6.244;2023-04-25T07:23:20;8.20;99.90
51733;DHT22;39139;53.144;6.244;2023-04-25T07:25:46;8.10;99.90
51733;DHT22;39139;53.144;6.244;2023-04-25T07:28:12;8.00;99.90
51733;DHT22;39139;53.144;6.244;2023-04-25T07:30:38;7.90;99.90
51733;DHT22;39139;53.144;6.244;2023-04-25T07:33:03;7.80;99.90
51733;DHT22;39139;53.144;6.244;2023-04-25T07:35:29;7.90;99.90
51733;DHT22;39139;53.144;6.244;2023-04-25T07:37:55;7.80;99.90
51733;DHT22;39139;53.144;6.244;2023-04-25T07:40:21;7.80;99.90
51733;DHT22;39139;53.144;6.244;2023-04-25T07:42:46;7.80;99.90
51733;DHT22;39139;53.144;6.244;2023-04-25T07:45:12;7.80;99.90
51733;DHT22;39139;53.144;6.244;2023-04-25T07:47:38;7.80;99.90
51733;DHT22;39139;53.144;6.244;2023-04-25T07:50:04;7.90;99.90
51733;DHT22;39139;53.144;6.244;2023-04-25T07:52:30;7.90;99.90
51733;DHT22;39139;53.144;6.244;2023-04-25T07:54:55;7.90;99.90
51733;DHT22;39139;53.144;6.244;2023-04-25T07:57:23;8.00;99.90
51733;DHT22;39139;53.144;6.244;2023-04-25T07:59:49;8.10;99.90
51733;DHT22;39139;53.144;6.244;2023-04-25T08:02:15;8.00;99.90
51733;DHT22;39139;53.144;6.244;2023-04-25T08:04:41;8.20;99.90
51733;DHT22;39139;53.144;6.244;2023-04-25T08:07:06;8.50;99.90
51733;DHT22;39139;53.144;6.244;2023-04-25T08:09:32;8.80;99.90
51733;DHT22;39139;53.144;6.244;2023-04-25T08:12:00;9.20;99.90
51733;DHT22;39139;53.144;6.244;2023-04-25T08:14:27;9.20;99.90
51733;DHT22;39139;53.144;6.244;2023-04-25T08:16:54;9.20;99.90
51733;DHT22;39139;53.144;6.244;2023-04-25T08:19:20;9.30;99.90
51733;DHT22;39139;53.144;6.244;2023-04-25T08:21:45;9.30;99.90
51733;DHT22;39139;53.144;6.244;2023-04-25T08:24:11;9.20;99.90
51733;DHT22;39139;53.144;6.244;2023-04-25T08:26:37;9.10;99.90
51733;DHT22;39139;53.144;6.244;2023-04-25T08:29:03;8.90;99.90
51733;DHT22;39139;53.144;6.244;2023-04-25T08:31:29;8.60;99.90
51733;DHT22;39139;53.144;6.244;2023-04-25T08:33:55;8.00;99.90
51733;DHT22;39139;53.144;6.244;2023-04-25T08:36:21;7.40;99.90
51733;DHT22;39139;53.144;6.244;2023-04-25T08:38:46;7.20;99.90
51733;DHT22;39139;53.144;6.244;2023-04-25T08:41:13;7.00;99.90
51733;DHT22;39139;53.144;6.244;2023-04-25T08:43:42;6.90;99.90
51733;DHT22;39139;53.144;6.244;2023-04-25T08:46:09;7.10;99.90
51733;DHT22;39139;53.144;6.244;2023-04-25T08:48:36;7.70;99.90
51733;DHT22;39139;53.144;6.244;2023-04-25T08:51:04;8.00;99.90
51733;DHT22;39139;53.144;6.244;2023-04-25T08:53:32;8.60;99.90
51733;DHT22;39139;53.144;6.244;2023-04-25T08:55:59;9.40;99.90
51733;DHT22;39139;53.144;6.244;2023-04-25T08:58:27;10.00;99.90
51733;DHT22;39139;53.144;6.244;2023-04-25T09:00:53;10.40;99.90
51733;DHT22;39139;53.144;6.244;2023-04-25T09:03:19;10.80;99.90
51733;DHT22;39139;53.144;6.244;2023-04-25T09:05:45;11.10;99.90
51733;DHT22;39139;53.144;6.244;2023-04-25T09:08:11;11.60;99.90
51733;DHT22;39139;53.144;6.244;2023-04-25T09:10:37;12.00;99.90
51733;DHT22;39139;53.144;6.244;2023-04-25T09:13:09;12.30;99.90
51733;DHT22;39139;53.144;6.244;2023-04-25T09:15:54;12.60;99.90
51733;DHT22;39139;53.144;6.244;2023-04-25T09:18:30;12.40;99.90
51733;DHT22;39139;53.144;6.244;2023-04-25T09:21:06;12.30;99.90
51733;DHT22;39139;53.144;6.244;2023-04-25T09:23:44;12.00;99.90
51733;DHT22;39139;53.144;6.244;2023-04-25T09:26:10;11.50;99.90
51733;DHT22;39139;53.144;6.244;2023-04-25T09:28:38;10.90;99.90
51733;DHT22;39139;53.144;6.244;2023-04-25T09:31:04;10.40;99.90
51733;DHT22;39139;53.144;6.244;2023-04-25T09:33:33;10.50;99.90
51733;DHT22;39139;53.144;6.244;2023-04-25T09:36:06;10.40;99.90
51733;DHT22;39139;53.144;6.244;2023-04-25T09:38:45;10.40;99.90
51733;DHT22;39139;53.144;6.244;2023-04-25T09:41:11;10.80;99.90
51733;DHT22;39139;53.144;6.244;2023-04-25T09:43:38;11.00;99.90
51733;DHT22;39139;53.144;6.244;2023-04-25T09:46:10;10.90;99.90
51733;DHT22;39139;53.144;6.244;2023-04-25T09:48:39;11.10;99.90
51733;DHT22;39139;53.144;6.244;2023-04-25T09:51:10;11.40;99.90
51733;DHT22;39139;53.144;6.244;2023-04-25T09:53:41;11.70;99.90
51733;DHT22;39139;53.144;6.244;2023-04-25T09:56:09;11.90;99.90
51733;DHT22;39139;53.144;6.244;2023-04-25T09:58:36;11.90;99.90
51733;DHT22;39139;53.144;6.244;2023-04-25T10:01:07;12.20;99.90
51733;DHT22;39139;53.144;6.244;2023-04-25T10:03:35;12.10;99.90
51733;DHT22;39139;53.144;6.244;2023-04-25T10:06:02;11.90;99.90
51733;DHT22;39139;53.144;6.244;2023-04-25T10:08:35;11.60;99.90
51733;DHT22;39139;53.144;6.244;2023-04-25T10:11:03;11.70;99.90
51733;DHT22;39139;53.144;6.244;2023-04-25T10:13:32;11.60;99.90
51733;DHT22;39139;53.144;6.244;2023-04-25T10:15:59;11.40;99.90
51733;DHT22;39139;53.144;6.244;2023-04-25T10:18:26;11.30;99.90
51733;DHT22;39139;53.144;6.244;2023-04-25T10:20:58;11.00;99.90
51733;DHT22;39139;53.144;6.244;2023-04-25T10:23:25;10.60;99.90
51733;DHT22;39139;53.144;6.244;2023-04-25T10:25:52;10.20;99.90
51733;DHT22;39139;53.144;6.244;2023-04-25T10:28:18;10.00;99.90
51733;DHT22;39139;53.144;6.244;2023-04-25T10:30:58;9.90;99.90
51733;DHT22;39139;53.144;6.244;2023-04-25T10:36:12;10.20;99.90
51733;DHT22;39139;53.144;6.244;2023-04-25T10:38:39;10.20;99.90
51733;DHT22;39139;53.144;6.244;2023-04-25T10:41:09;10.20;99.90
51733;DHT22;39139;53.144;6.244;2023-04-25T10:46:23;9.00;99.90
51733;DHT22;39139;53.144;6.244;2023-04-25T10:48:53;8.70;99.90
51733;DHT22;39139;53.144;6.244;2023-04-25T10:51:23;8.50;99.90
51733;DHT22;39139;53.144;6.244;2023-04-25T10:56:21;8.40;99.90
51733;DHT22;39139;53.144;6.244;2023-04-25T10:58:48;8.30;99.90
51733;DHT22;39139;53.144;6.244;2023-04-25T11:01:14;8.90;99.90
51733;DHT22;39139;53.144;6.244;2023-04-25T11:03:43;9.10;99.90
51733;DHT22;39139;53.144;6.244;2023-04-25T11:06:30;9.10;99.90
51733;DHT22;39139;53.144;6.244;2023-04-25T11:09:00;9.50;99.90
51733;DHT22;39139;53.144;6.244;2023-04-25T11:11:26;10.00;99.90
51733;DHT22;39139;53.144;6.244;2023-04-25T11:13:52;10.20;99.90
51733;DHT22;39139;53.144;6.244;2023-04-25T11:16:18;10.10;99.90
51733;DHT22;39139;53.144;6.244;2023-04-25T11:18:44;10.30;99.90
51733;DHT22;39139;53.144;6.244;2023-04-25T11:21:10;10.50;99.90
51733;DHT22;39139;53.144;6.244;2023-04-25T11:23:36;10.60;99.90
51733;DHT22;39139;53.144;6.244;2023-04-25T11:26:03;10.20;99.90
51733;DHT22;39139;53.144;6.244;2023-04-25T11:28:29;10.30;99.90
51733;DHT22;39139;53.144;6.244;2023-04-25T11:30:55;10.70;99.90
51733;DHT22;39139;53.144;6.244;2023-04-25T11:33:25;10.90;99.90
51733;DHT22;39139;53.144;6.244;2023-04-25T11:35:54;11.30;99.90
51733;DHT22;39139;53.144;6.244;2023-04-25T11:38:20;11.40;99.90
51733;DHT22;39139;53.144;6.244;2023-04-25T11:40:52;11.60;99.90
51733;DHT22;39139;53.144;6.244;2023-04-25T11:43:21;11.70;99.90
51733;DHT22;39139;53.144;6.244;2023-04-25T11:45:48;11.90;99.90
51733;DHT22;39139;53.144;6.244;2023-04-25T11:48:14;11.90;99.90
51733;DHT22;39139;53.144;6.244;2023-04-25T11:50:40;11.30;99.90
51733;DHT22;39139;53.144;6.244;2023-04-25T11:53:07;10.80;99.90
51733;DHT22;39139;53.144;6.244;2023-04-25T11:55:34;10.40;99.90
51733;DHT22;39139;53.144;6.244;2023-04-25T11:58:00;10.00;99.90
51733;DHT22;39139;53.144;6.244;2023-04-25T12:00:27;9.50;99.90
51733;DHT22;39139;53.144;6.244;2023-04-25T12:02:54;9.20;99.90
51733;DHT22;39139;53.144;6.244;2023-04-25T12:05:23;9.10;99.90
51733;DHT22;39139;53.144;6.244;2023-04-25T12:07:49;9.30;99.90
51733;DHT22;39139;53.144;6.244;2023-04-25T12:10:18;9.60;99.90
51733;DHT22;39139;53.144;6.244;2023-04-25T12:12:46;9.90;99.90
51733;DHT22;39139;53.144;6.244;2023-04-25T12:15:24;10.10;99.90
51733;DHT22;39139;53.144;6.244;2023-04-25T12:17:51;10.00;99.90
51733;DHT22;39139;53.144;6.244;2023-04-25T12:20:18;9.50;99.90
51733;DHT22;39139;53.144;6.244;2023-04-25T12:22:47;9.80;99.90
51733;DHT22;39139;53.144;6.244;2023-04-25T12:25:34;9.60;99.90
51733;DHT22;39139;53.144;6.244;2023-04-25T12:28:20;9.70;99.90
51733;DHT22;39139;53.144;6.244;2023-04-25T12:31:01;10.10;99.90
51733;DHT22;39139;53.144;6.244;2023-04-25T12:33:38;10.40;99.90
51733;DHT22;39139;53.144;6.244;2023-04-25T12:36:06;10.80;99.90
51733;DHT22;39139;53.144;6.244;2023-04-25T12:38:41;10.90;99.90
51733;DHT22;39139;53.144;6.244;2023-04-25T12:41:08;10.80;99.90
51733;DHT22;39139;53.144;6.244;2023-04-25T12:43:34;10.80;99.90
51733;DHT22;39139;53.144;6.244;2023-04-25T12:46:00;10.80;99.90
51733;DHT22;39139;53.144;6.244;2023-04-25T12:48:25;10.70;99.90
51733;DHT22;39139;53.144;6.244;2023-04-25T12:50:51;10.30;99.90
51733;DHT22;39139;53.144;6.244;2023-04-25T12:53:21;10.30;99.90
51733;DHT22;39139;53.144;6.244;2023-04-25T12:55:48;10.20;99.90
51733;DHT22;39139;53.144;6.244;2023-04-25T12:58:18;10.00;99.90
51733;DHT22;39139;53.144;6.244;2023-04-25T13:00:44;10.10;99.90
51733;DHT22;39139;53.144;6.244;2023-04-25T13:03:10;9.90;99.90
51733;DHT22;39139;53.144;6.244;2023-04-25T13:05:39;9.90;99.90
51733;DHT22;39139;53.144;6.244;2023-04-25T13:08:05;9.90;99.90
51733;DHT22;39139;53.144;6.244;2023-04-25T13:10:31;10.10;99.90
51733;DHT22;39139;53.144;6.244;2023-04-25T13:12:56;10.50;99.90
51733;DHT22;39139;53.144;6.244;2023-04-25T13:15:22;10.60;99.90
51733;DHT22;39139;53.144;6.244;2023-04-25T13:17:48;10.80;99.90
51733;DHT22;39139;53.144;6.244;2023-04-25T13:20:14;10.80;99.90
51733;DHT22;39139;53.144;6.244;2023-04-25T13:22:41;11.00;99.90
51733;DHT22;39139;53.144;6.244;2023-04-25T13:25:07;10.80;99.90
51733;DHT22;39139;53.144;6.244;2023-04-25T13:27:34;10.50;99.90
51733;DHT22;39139;53.144;6.244;2023-04-25T13:30:02;10.30;99.90
51733;DHT22;39139;53.144;6.244;2023-04-25T13:32:36;9.80;99.90
51733;DHT22;39139;53.144;6.244;2023-04-25T13:35:09;9.50;99.90
51733;DHT22;39139;53.144;6.244;2023-04-25T13:37:35;9.30;99.90
51733;DHT22;39139;53.144;6.244;2023-04-25T13:40:05;9.20;99.90
51733;DHT22;39139;53.144;6.244;2023-04-25T13:42:32;9.10;99.90
51733;DHT22;39139;53.144;6.244;2023-04-25T13:44:57;8.90;99.90
51733;DHT22;39139;53.144;6.244;2023-04-25T13:47:23;9.00;99.90
51733;DHT22;39139;53.144;6.244;2023-04-25T13:49:50;9.00;99.90
51733;DHT22;39139;53.144;6.244;2023-04-25T13:52:15;9.10;99.90
51733;DHT22;39139;53.144;6.244;2023-04-25T13:54:41;9.10;99.90
51733;DHT22;39139;53.144;6.244;2023-04-25T13:57:07;9.20;99.90
51733;DHT22;39139;53.144;6.244;2023-04-25T13:59:33;9.10;99.90
51733;DHT22;39139;53.144;6.244;2023-04-25T14:01:58;9.50;99.90
51733;DHT22;39139;53.144;6.244;2023-04-25T14:04:24;9.80;99.90
51733;DHT22;39139;53.144;6.244;2023-04-25T14:06:50;10.00;99.90
51733;DHT22;39139;53.144;6.244;2023-04-25T14:09:17;10.00;99.90
51733;DHT22;39139;53.144;6.244;2023-04-25T14:11:43;10.00;99.90
51733;DHT22;39139;53.144;6.244;2023-04-25T14:14:08;9.90;99.90
51733;DHT22;39139;53.144;6.244;2023-04-25T14:16:34;9.90;99.90
51733;DHT22;39139;53.144;6.244;2023-04-25T14:19:01;10.10;99.90
51733;DHT22;39139;53.144;6.244;2023-04-25T14:21:27;10.30;99.90
51733;DHT22;39139;53.144;6.244;2023-04-25T14:23:53;10.50;99.90
51733;DHT22;39139;53.144;6.244;2023-04-25T14:26:19;10.50;99.90
51733;DHT22;39139;53.144;6.244;2023-04-25T14:28:45;10.60;99.90
51733;DHT22;39139;53.144;6.244;2023-04-25T14:31:11;10.70;99.90
51733;DHT22;39139;53.144;6.244;2023-04-25T14:33:36;11.10;99.90
51733;DHT22;39139;53.144;6.244;2023-04-25T14:36:05;11.80;99.90
51733;DHT22;39139;53.144;6.244;2023-04-25T14:38:31;11.00;99.90
51733;DHT22;39139;53.144;6.244;2023-04-25T14:40:56;11.10;99.90
51733;DHT22;39139;53.144;6.244;2023-04-25T14:43:22;11.10;99.90
51733;DHT22;39139;53.144;6.244;2023-04-25T14:45:48;11.00;99.90
51733;DHT22;39139;53.144;6.244;2023-04-25T14:48:13;11.00;99.90
51733;DHT22;39139;53.144;6.244;2023-04-25T14:50:39;10.90;99.90
51733;DHT22;39139;53.144;6.244;2023-04-25T14:53:05;10.70;99.90
51733;DHT22;39139;53.144;6.244;2023-04-25T14:55:31;10.60;99.90
51733;DHT22;39139;53.144;6.244;2023-04-25T14:57:56;10.40;99.90
51733;DHT22;39139;53.144;6.244;2023-04-25T15:00:22;10.30;99.90
51733;DHT22;39139;53.144;6.244;2023-04-25T15:02:48;10.20;99.90
51733;DHT22;39139;53.144;6.244;2023-04-25T15:05:14;10.30;99.90
51733;DHT22;39139;53.144;6.244;2023-04-25T15:07:40;10.20;99.90
51733;DHT22;39139;53.144;6.244;2023-04-25T15:10:09;10.20;99.90
51733;DHT22;39139;53.144;6.244;2023-04-25T15:12:41;10.20;99.90
51733;DHT22;39139;53.144;6.244;2023-04-25T15:15:08;10.10;99.90
51733;DHT22;39139;53.144;6.244;2023-04-25T15:17:41;10.10;99.90
51733;DHT22;39139;53.144;6.244;2023-04-25T15:20:09;10.10;99.90
51733;DHT22;39139;53.144;6.244;2023-04-25T15:22:42;10.10;99.90
51733;DHT22;39139;53.144;6.244;2023-04-25T15:25:09;10.00;99.90
51733;DHT22;39139;53.144;6.244;2023-04-25T15:27:36;9.80;99.90
51733;DHT22;39139;53.144;6.244;2023-04-25T15:30:13;9.70;99.90
51733;DHT22;39139;53.144;6.244;2023-04-25T15:32:41;9.60;99.90
51733;DHT22;39139;53.144;6.244;2023-04-25T15:35:08;9.60;99.90
51733;DHT22;39139;53.144;6.244;2023-04-25T15:37:34;9.70;99.90
51733;DHT22;39139;53.144;6.244;2023-04-25T15:40:09;9.70;99.90
51733;DHT22;39139;53.144;6.244;2023-04-25T15:42:37;9.90;99.90
51733;DHT22;39139;53.144;6.244;2023-04-25T15:45:04;9.80;99.90
51733;DHT22;39139;53.144;6.244;2023-04-25T15:47:30;10.00;99.90